createdAt,value
2022-10-07T00:01:57.475Z,2.90
2022-10-07T00:04:28.237Z,2.63
2022-10-07T00:06:57.312Z,2.38
2022-10-07T00:09:26.437Z,2.70
2022-10-07T00:11:55.763Z,2.65
2022-10-07T00:14:24.871Z,2.90
2022-10-07T00:16:53.870Z,2.40
2022-10-07T00:19:23.400Z,2.28
2022-10-07T00:21:53.757Z,2.63
2022-10-07T00:24:23.156Z,2.40
2022-10-07T00:26:52.258Z,2.78
2022-10-07T00:29:25.043Z,2.45
2022-10-07T00:31:57.204Z,2.47
2022-10-07T00:34:27.546Z,3.05
2022-10-07T00:36:58.004Z,2.60
2022-10-07T00:39:27.075Z,2.60
2022-10-07T00:41:56.699Z,2.22
2022-10-07T00:44:44.214Z,2.28
2022-10-07T00:47:21.725Z,1.80
2022-10-07T00:49:55.520Z,2.42
2022-10-07T00:52:30.318Z,1.85
2022-10-07T00:55:02.306Z,2.20
2022-10-07T00:57:34.575Z,2.35
2022-10-07T01:00:05.324Z,2.45
2022-10-07T01:02:35.884Z,2.65
2022-10-07T01:05:09.368Z,3.90
2022-10-07T01:07:40.225Z,3.30
2022-10-07T01:10:12.661Z,4.43
2022-10-07T01:12:55.174Z,4.15
2022-10-07T01:15:34.077Z,4.47
2022-10-07T01:18:11.393Z,4.07
2022-10-07T01:20:46.843Z,5.30
2022-10-07T01:26:20.695Z,5.75
2022-10-07T01:28:55.552Z,5.15
2022-10-07T01:31:29.385Z,5.25
2022-10-07T01:34:01.779Z,6.43
2022-10-07T01:36:32.713Z,4.35
2022-10-07T01:39:06.661Z,5.25
2022-10-07T01:41:38.649Z,4.35
2022-10-07T01:44:10.410Z,3.30
2022-10-07T01:46:39.732Z,4.30
2022-10-07T01:49:10.330Z,3.83
2022-10-07T01:51:55.137Z,4.43
2022-10-07T01:54:34.605Z,3.70
2022-10-07T01:57:16.182Z,4.05
2022-10-07T02:00:06.756Z,3.60
2022-10-07T02:03:00.182Z,4.57
2022-10-07T02:05:40.147Z,4.63
2022-10-07T02:08:23.582Z,4.65
2022-10-07T02:11:16.068Z,4.07
2022-10-07T02:14:01.050Z,4.00
2022-10-07T02:19:12.184Z,4.13
2022-10-07T02:21:44.499Z,3.72
2022-10-07T02:24:16.807Z,4.18
2022-10-07T02:26:48.443Z,4.50
2022-10-07T02:29:21.901Z,3.65
2022-10-07T02:36:54.747Z,3.45
2022-10-07T02:39:24.426Z,3.30
2022-10-07T02:42:06.052Z,3.63
2022-10-07T02:44:41.721Z,3.10
2022-10-07T02:47:16.626Z,3.72
2022-10-07T02:49:50.392Z,3.30
2022-10-07T02:52:23.370Z,3.72
2022-10-07T02:54:59.750Z,3.75
2022-10-07T02:57:36.102Z,3.22
2022-10-07T03:00:11.134Z,3.47
2022-10-07T03:02:54.085Z,3.95
2022-10-07T03:05:27.623Z,3.90
2022-10-07T03:08:05.915Z,2.92
2022-10-07T03:10:36.008Z,4.15
2022-10-07T03:13:06.017Z,4.07
2022-10-07T03:15:42.487Z,3.50
2022-10-07T03:18:28.425Z,3.88
2022-10-07T03:21:09.831Z,5.90
2022-10-07T03:23:40.615Z,10.25
2022-10-07T03:26:09.996Z,18.90
2022-10-07T03:28:39.527Z,14.45
2022-10-07T03:31:11.927Z,8.50
2022-10-07T03:33:46.739Z,7.38
2022-10-07T03:36:16.109Z,6.38
2022-10-07T03:38:49.240Z,6.30
2022-10-07T03:41:19.136Z,6.50
2022-10-07T03:43:51.543Z,6.03
2022-10-07T03:46:24.177Z,6.90
2022-10-07T03:48:54.204Z,6.63
2022-10-07T03:51:23.889Z,6.50
2022-10-07T03:53:57.422Z,5.60
2022-10-07T03:56:28.965Z,5.25
2022-10-07T03:58:58.032Z,4.47
2022-10-07T04:01:31.692Z,5.10
2022-10-07T04:04:02.525Z,4.45
2022-10-07T04:06:36.338Z,4.10
2022-10-07T04:09:10.409Z,4.25
2022-10-07T04:11:41.755Z,3.85
2022-10-07T04:14:11.806Z,3.45
2022-10-07T04:16:43.261Z,3.40
2022-10-07T04:19:14.988Z,3.55
2022-10-07T04:21:45.233Z,3.90
2022-10-07T04:24:15.805Z,3.03
2022-10-07T04:26:44.906Z,3.85
2022-10-07T04:29:16.246Z,3.08
2022-10-07T04:31:45.558Z,4.00
2022-10-07T04:34:15.987Z,4.20
2022-10-07T04:36:45.595Z,5.43
2022-10-07T04:39:21.013Z,4.38
2022-10-07T04:41:56.083Z,6.10
2022-10-07T04:44:30.284Z,4.63
2022-10-07T04:47:07.169Z,4.75
2022-10-07T04:49:39.226Z,3.90
2022-10-07T04:52:10.822Z,3.65
2022-10-07T04:54:44.143Z,4.03
2022-10-07T04:57:13.809Z,4.30
2022-10-07T04:59:44.711Z,3.50
2022-10-07T05:02:17.901Z,3.35
2022-10-07T05:04:48.398Z,3.70
2022-10-07T05:07:18.467Z,3.22
2022-10-07T05:09:49.637Z,3.85
2022-10-07T05:12:18.896Z,3.78
2022-10-07T05:14:48.747Z,3.60
2022-10-07T05:17:19.249Z,3.65
2022-10-07T05:19:49.052Z,2.97
2022-10-07T05:22:18.149Z,3.80
2022-10-07T05:24:48.570Z,3.38
2022-10-07T05:27:18.008Z,3.33
2022-10-07T05:29:47.176Z,3.40
2022-10-07T05:32:16.426Z,3.85
2022-10-07T05:34:45.925Z,3.58
2022-10-07T05:37:15.239Z,3.67
2022-10-07T05:39:44.679Z,3.50
2022-10-07T05:42:20.890Z,4.10
2022-10-07T05:44:56.918Z,3.63
2022-10-07T05:47:27.159Z,3.30
2022-10-07T05:49:58.780Z,3.58
2022-10-07T05:52:29.196Z,3.50
2022-10-07T05:54:58.541Z,4.05
2022-10-07T05:57:30.249Z,4.05
2022-10-07T06:00:01.912Z,4.60
2022-10-07T06:02:32.792Z,4.90
2022-10-07T06:05:02.354Z,3.85
2022-10-07T06:07:32.373Z,4.95
2022-10-07T06:10:19.745Z,4.88
2022-10-07T06:13:09.483Z,4.40
2022-10-07T06:15:41.583Z,4.43
2022-10-07T06:18:11.262Z,4.20
2022-10-07T06:20:40.858Z,4.25
2022-10-07T06:23:10.075Z,3.55
2022-10-07T06:25:39.077Z,4.20
2022-10-07T06:28:09.941Z,2.90
2022-10-07T06:30:39.892Z,2.90
2022-10-07T06:33:09.309Z,3.05
2022-10-07T06:35:38.399Z,3.38
2022-10-07T06:38:07.938Z,2.85
2022-10-07T06:40:37.331Z,3.22
2022-10-07T06:43:08.305Z,3.25
2022-10-07T06:45:44.353Z,3.22
2022-10-07T06:48:16.378Z,2.60
2022-10-07T06:50:52.228Z,2.80
2022-10-07T06:53:23.065Z,4.32
2022-10-07T06:55:54.667Z,2.80
2022-10-07T06:58:26.087Z,2.75
2022-10-07T07:00:57.065Z,3.63
2022-10-07T07:03:26.810Z,3.00
2022-10-07T07:05:58.014Z,2.38
2022-10-07T07:11:25.991Z,2.28
2022-10-07T07:13:57.405Z,2.10
2022-10-07T07:16:28.443Z,2.95
2022-10-07T07:18:59.484Z,3.40
2022-10-07T07:21:29.082Z,2.00
2022-10-07T07:23:59.001Z,2.90
2022-10-07T07:26:28.862Z,2.17
2022-10-07T07:29:03.253Z,2.42
2022-10-07T07:31:38.865Z,2.28
2022-10-07T07:34:12.400Z,2.20
2022-10-07T07:36:46.081Z,2.20
2022-10-07T07:39:18.692Z,1.85
2022-10-07T07:41:54.011Z,2.50
2022-10-07T07:44:30.068Z,2.10
2022-10-07T07:47:03.001Z,2.28
2022-10-07T07:49:34.186Z,2.42
2022-10-07T07:52:04.334Z,2.88
2022-10-07T07:54:39.822Z,2.38
2022-10-07T07:57:09.577Z,2.40
2022-10-07T07:59:40.412Z,2.70
2022-10-07T08:02:13.313Z,2.38
2022-10-07T08:04:46.133Z,2.30
2022-10-07T08:07:15.908Z,2.08
2022-10-07T08:09:48.180Z,2.35
2022-10-07T08:12:17.678Z,2.42
2022-10-07T08:14:48.891Z,2.17
2022-10-07T08:17:19.324Z,2.35
2022-10-07T08:19:48.502Z,1.80
2022-10-07T08:22:17.984Z,1.80
2022-10-07T08:24:50.324Z,2.20
2022-10-07T08:27:22.002Z,2.45
2022-10-07T08:29:52.523Z,2.45
2022-10-07T08:32:23.222Z,1.98
2022-10-07T08:34:52.601Z,2.38
2022-10-07T08:37:22.147Z,2.20
2022-10-07T08:39:51.735Z,1.90
2022-10-07T08:42:28.858Z,2.30
2022-10-07T08:45:00.720Z,2.17
2022-10-07T08:47:34.810Z,2.63
2022-10-07T08:50:09.852Z,2.00
2022-10-07T08:52:51.140Z,2.42
2022-10-07T08:55:28.383Z,1.98
2022-10-07T08:58:16.354Z,2.05
2022-10-07T09:00:52.047Z,1.80
2022-10-07T09:05:57.169Z,1.95
2022-10-07T09:08:30.026Z,2.15
2022-10-07T09:11:15.942Z,1.85
2022-10-07T09:13:49.232Z,1.98
2022-10-07T09:16:26.273Z,1.73
2022-10-07T09:18:58.995Z,2.20
2022-10-07T09:21:37.042Z,2.08
2022-10-07T09:24:19.988Z,2.80
2022-10-07T09:26:50.317Z,2.45
2022-10-07T09:29:22.676Z,2.25
2022-10-07T09:31:54.098Z,2.20
2022-10-07T09:34:25.542Z,2.03
2022-10-07T09:37:26.680Z,2.08
2022-10-07T09:39:58.427Z,1.52
2022-10-07T09:42:35.281Z,1.90
2022-10-07T09:45:18.972Z,1.88
2022-10-07T09:47:53.714Z,1.77
2022-10-07T09:50:36.547Z,2.13
2022-10-07T09:53:07.359Z,1.52
2022-10-07T09:55:42.307Z,1.67
2022-10-07T09:58:20.341Z,2.00
2022-10-07T10:00:51.168Z,2.05
2022-10-07T10:03:23.012Z,2.20
2022-10-07T10:05:57.535Z,2.00
2022-10-07T10:08:30.103Z,1.92
2022-10-07T10:11:01.461Z,1.80
2022-10-07T10:13:34.294Z,1.90
2022-10-07T10:16:05.023Z,1.77
2022-10-07T10:18:56.063Z,1.77
2022-10-07T10:21:30.286Z,1.83
2022-10-07T10:24:01.626Z,1.73
2022-10-07T10:26:50.851Z,1.70
2022-10-07T10:29:38.462Z,1.67
2022-10-07T10:32:48.803Z,1.95
2022-10-07T10:35:25.022Z,1.50
2022-10-07T10:38:16.708Z,1.48
2022-10-07T10:40:57.588Z,1.70
2022-10-07T10:43:32.799Z,1.70
2022-10-07T10:46:28.835Z,1.85
2022-10-07T10:49:09.486Z,1.60
2022-10-07T10:51:53.348Z,1.80
2022-10-07T10:54:30.297Z,1.63
2022-10-07T10:57:05.451Z,1.50
2022-10-07T11:00:01.064Z,1.67
2022-10-07T11:03:15.361Z,1.48
2022-10-07T11:05:45.548Z,1.60
2022-10-07T11:08:24.140Z,1.50
2022-10-07T11:10:59.856Z,1.70
2022-10-07T11:13:33.774Z,1.67
2022-10-07T11:16:09.446Z,2.05
2022-10-07T11:18:45.903Z,1.60
2022-10-07T11:21:21.570Z,1.90
2022-10-07T11:23:58.416Z,1.90
2022-10-07T11:26:34.823Z,1.70
2022-10-07T11:29:16.185Z,1.65
2022-10-07T11:31:51.356Z,1.60
2022-10-07T11:34:24.195Z,1.50
2022-10-07T11:36:58.828Z,1.95
2022-10-07T11:39:30.018Z,1.38
2022-10-07T11:42:05.035Z,1.60
2022-10-07T11:44:42.139Z,1.30
2022-10-07T11:47:19.721Z,2.10
2022-10-07T11:49:57.991Z,1.45
2022-10-07T11:52:32.171Z,1.60
2022-10-07T11:55:08.796Z,1.60
2022-10-07T11:57:43.412Z,2.05
2022-10-07T12:00:26.261Z,1.80
2022-10-07T12:02:56.388Z,1.88
2022-10-07T12:05:56.054Z,1.65
2022-10-07T12:08:33.985Z,1.52
2022-10-07T12:11:43.023Z,1.85
2022-10-07T12:14:41.324Z,2.10
2022-10-07T12:17:30.461Z,1.80
2022-10-07T12:20:37.287Z,1.75
2022-10-07T12:23:40.928Z,1.70
2022-10-07T12:26:48.232Z,1.40
2022-10-07T12:29:51.038Z,1.52
2022-10-07T12:32:56.375Z,1.70
2022-10-07T12:35:43.564Z,1.70
2022-10-07T12:38:16.767Z,1.77
2022-10-07T12:40:51.201Z,1.80
2022-10-07T12:43:32.428Z,1.83
2022-10-07T12:46:06.494Z,1.33
2022-10-07T12:48:41.557Z,1.63
2022-10-07T12:51:19.464Z,1.90
2022-10-07T12:53:52.108Z,1.48
2022-10-07T12:56:26.570Z,1.50
2022-10-07T12:59:39.401Z,1.42
2022-10-07T13:02:44.380Z,1.60
2022-10-07T13:05:45.229Z,1.25
2022-10-07T13:08:52.463Z,1.98
2022-10-07T13:11:52.761Z,1.67
2022-10-07T13:14:28.790Z,1.58
2022-10-07T13:17:06.007Z,1.60
2022-10-07T13:19:47.104Z,1.85
2022-10-07T13:22:18.040Z,1.55
2022-10-07T13:24:51.105Z,1.70
2022-10-07T13:27:24.818Z,1.23
2022-10-07T13:29:54.480Z,1.27
2022-10-07T13:32:25.613Z,1.52
2022-10-07T13:34:57.527Z,1.50
2022-10-07T13:37:32.234Z,1.63
2022-10-07T13:40:20.771Z,2.25
2022-10-07T13:42:55.654Z,1.38
2022-10-07T13:45:25.507Z,1.70
2022-10-07T13:47:55.923Z,1.80
2022-10-07T13:50:29.209Z,1.60
2022-10-07T13:52:58.771Z,1.77
2022-10-07T13:55:32.197Z,2.17
2022-10-07T13:58:04.431Z,1.42
2022-10-07T14:00:35.448Z,1.70
2022-10-07T14:03:13.350Z,1.98
2022-10-07T14:05:52.003Z,1.90
2022-10-07T14:08:23.543Z,1.60
2022-10-07T14:10:57.673Z,1.48
2022-10-07T14:13:29.031Z,1.50
2022-10-07T14:16:00.242Z,1.88
2022-10-07T14:18:31.419Z,1.85
2022-10-07T14:21:16.667Z,1.80
2022-10-07T14:23:47.877Z,1.63
2022-10-07T14:26:18.135Z,1.60
2022-10-07T14:28:47.601Z,1.70
2022-10-07T14:31:38.603Z,2.08
2022-10-07T14:34:32.611Z,1.90
2022-10-07T14:37:05.408Z,1.73
2022-10-07T14:39:37.453Z,1.83
2022-10-07T14:42:11.781Z,2.15
2022-10-07T14:47:16.031Z,3.15
2022-10-07T14:49:45.435Z,2.65
2022-10-07T14:52:28.219Z,2.50
2022-10-07T14:54:59.671Z,2.60
2022-10-07T14:57:29.141Z,2.50
2022-10-07T14:59:58.423Z,2.00
2022-10-07T15:02:28.572Z,1.75
2022-10-07T15:04:57.588Z,1.60
2022-10-07T15:07:28.096Z,2.20
2022-10-07T15:09:57.347Z,1.90
2022-10-07T15:12:27.966Z,1.77
2022-10-07T15:14:56.967Z,1.50
2022-10-07T15:17:26.180Z,1.73
2022-10-07T15:19:55.381Z,2.25
2022-10-07T15:22:24.721Z,2.00
2022-10-07T15:24:55.375Z,1.77
2022-10-07T15:27:24.851Z,1.80
2022-10-07T15:29:55.401Z,1.63
2022-10-07T15:32:25.321Z,1.90
2022-10-07T15:34:55.238Z,1.65
2022-10-07T15:37:25.151Z,1.95
2022-10-07T15:39:55.775Z,1.55
2022-10-07T15:42:26.311Z,1.88
2022-10-07T15:44:55.686Z,2.05
2022-10-07T15:47:24.847Z,2.10
2022-10-07T15:49:54.099Z,2.50
2022-10-07T15:52:23.111Z,2.17
2022-10-07T15:54:52.403Z,2.13
2022-10-07T15:57:24.396Z,3.70
2022-10-07T15:59:54.861Z,2.33
2022-10-07T16:02:24.867Z,2.22
2022-10-07T16:04:54.199Z,2.20
2022-10-07T16:07:24.043Z,2.30
2022-10-07T16:09:53.020Z,2.22
2022-10-07T16:12:23.630Z,2.05
2022-10-07T16:14:53.137Z,2.25
2022-10-07T16:17:22.320Z,2.13
2022-10-07T16:19:51.582Z,2.17
2022-10-07T16:22:20.738Z,2.17
2022-10-07T16:24:50.197Z,2.60
2022-10-07T16:27:19.402Z,2.42
2022-10-07T16:30:07.661Z,3.10
2022-10-07T16:32:36.992Z,3.92
2022-10-07T16:35:06.694Z,3.25
2022-10-07T16:37:35.938Z,3.40
2022-10-07T16:40:05.269Z,3.85
2022-10-07T16:42:34.256Z,6.03
2022-10-07T16:45:05.891Z,5.70
2022-10-07T16:47:34.995Z,7.78
2022-10-07T16:50:07.586Z,6.40
2022-10-07T16:55:10.041Z,7.32
2022-10-07T16:57:39.015Z,8.98
2022-10-07T17:00:11.555Z,12.20
2022-10-07T17:02:40.588Z,12.23
2022-10-07T17:05:11.176Z,13.10
2022-10-07T17:07:40.160Z,12.80
2022-10-07T17:10:10.667Z,12.48
2022-10-07T17:12:39.638Z,13.85
2022-10-07T17:15:10.228Z,13.57
2022-10-07T17:17:39.524Z,11.85
2022-10-07T17:20:10.226Z,13.23
2022-10-07T17:22:39.256Z,11.10
2022-10-07T17:25:09.148Z,10.88
2022-10-07T17:27:38.195Z,11.32
2022-10-07T17:30:10.430Z,10.57
2022-10-07T17:32:39.752Z,11.50
2022-10-07T17:35:09.761Z,9.73
2022-10-07T17:37:38.892Z,11.00
2022-10-07T17:40:08.913Z,11.75
2022-10-07T17:42:37.916Z,18.92
2022-10-07T17:45:10.482Z,15.98
2022-10-07T17:47:39.934Z,13.75
2022-10-07T17:50:09.750Z,14.30
2022-10-07T17:52:39.425Z,14.93
2022-10-07T17:55:12.668Z,16.25
2022-10-07T17:57:42.084Z,16.20
2022-10-07T18:00:13.502Z,17.58
2022-10-07T18:02:42.810Z,17.40
2022-10-07T18:05:12.055Z,18.35
2022-10-07T18:07:42.665Z,17.63
2022-10-07T18:10:11.847Z,18.38
2022-10-07T18:12:58.674Z,18.23
2022-10-07T18:15:29.402Z,19.02
2022-10-07T18:17:58.480Z,19.85
2022-10-07T18:20:28.558Z,19.88
2022-10-07T18:22:58.764Z,19.08
2022-10-07T18:25:28.102Z,19.92
2022-10-07T18:27:57.139Z,18.90
2022-10-07T18:30:26.556Z,17.80
2022-10-07T18:32:57.050Z,18.58
2022-10-07T18:35:26.126Z,18.65
2022-10-07T18:37:55.435Z,16.98
2022-10-07T18:40:24.458Z,11.50
2022-10-07T18:42:53.694Z,13.52
2022-10-07T18:45:23.379Z,14.32
2022-10-07T18:47:52.729Z,11.93
2022-10-07T18:50:24.006Z,12.15
2022-10-07T18:52:53.266Z,11.50
2022-10-07T18:55:22.517Z,9.15
2022-10-07T18:57:51.829Z,9.40
2022-10-07T19:00:20.891Z,7.18
2022-10-07T19:02:51.587Z,7.38
2022-10-07T19:05:22.286Z,7.10
2022-10-07T19:07:51.559Z,7.25
2022-10-07T19:10:20.557Z,7.85
2022-10-07T19:13:07.992Z,7.35
2022-10-07T19:15:38.264Z,6.95
2022-10-07T19:18:07.793Z,7.30
2022-10-07T19:20:42.649Z,7.47
2022-10-07T19:23:11.852Z,8.20
2022-10-07T19:25:48.918Z,9.35
2022-10-07T19:28:21.484Z,8.25
2022-10-07T19:30:50.767Z,8.40
2022-10-07T19:33:20.288Z,9.23
2022-10-07T19:35:55.579Z,8.85
2022-10-07T19:38:25.013Z,9.35
2022-10-07T19:40:57.275Z,8.63
2022-10-07T19:43:26.637Z,8.85
2022-10-07T19:46:01.454Z,9.95
2022-10-07T19:48:32.565Z,10.10
2022-10-07T19:51:04.884Z,10.70
2022-10-07T19:53:35.781Z,10.15
2022-10-07T19:56:06.660Z,10.38
2022-10-07T19:58:36.151Z,10.40
2022-10-07T20:01:06.919Z,10.70
2022-10-07T20:03:36.606Z,11.80
2022-10-07T20:06:09.125Z,11.60
2022-10-07T20:08:39.840Z,10.98
2022-10-07T20:11:10.383Z,11.48
2022-10-07T20:13:40.740Z,11.63
2022-10-07T20:16:12.827Z,10.82
2022-10-07T20:18:42.301Z,11.73
2022-10-07T20:21:17.180Z,11.70
2022-10-07T20:23:48.285Z,12.05
2022-10-07T20:26:19.837Z,12.25
2022-10-07T20:28:51.886Z,11.27
2022-10-07T20:31:23.877Z,11.90
2022-10-07T20:33:55.185Z,12.30
2022-10-07T20:36:27.280Z,12.98
2022-10-07T20:39:14.508Z,12.13
2022-10-07T20:42:07.482Z,11.70
2022-10-07T20:44:37.680Z,11.90
2022-10-07T20:47:07.791Z,12.95
2022-10-07T20:49:38.812Z,13.15
2022-10-07T20:52:13.237Z,12.25
2022-10-07T20:54:42.696Z,13.95
2022-10-07T20:57:14.104Z,14.02
2022-10-07T20:59:43.876Z,11.65
2022-10-07T21:02:13.954Z,12.23
2022-10-07T21:04:43.217Z,11.23
2022-10-07T21:07:14.466Z,12.52
2022-10-07T21:09:43.828Z,11.95
2022-10-07T21:12:15.777Z,12.02
2022-10-07T21:14:47.934Z,11.32
2022-10-07T21:17:17.787Z,11.80
2022-10-07T21:19:46.985Z,12.25
2022-10-07T21:22:17.808Z,11.00
2022-10-07T21:24:47.141Z,11.98
2022-10-07T21:27:16.185Z,11.07
2022-10-07T21:29:48.604Z,11.40
2022-10-07T21:32:18.769Z,11.30
2022-10-07T21:34:48.051Z,12.20
2022-10-07T21:37:18.565Z,12.02
2022-10-07T21:39:47.788Z,13.05
2022-10-07T21:42:17.147Z,11.63
2022-10-07T21:44:47.362Z,12.23
2022-10-07T21:47:16.614Z,11.80
2022-10-07T21:49:45.709Z,12.43
2022-10-07T21:52:15.129Z,13.10
2022-10-07T21:54:45.720Z,13.00
2022-10-07T21:57:14.921Z,12.77
2022-10-07T21:59:43.988Z,14.38
2022-10-07T22:02:13.909Z,14.68
2022-10-07T22:04:43.093Z,14.32
2022-10-07T22:07:30.661Z,13.30
2022-10-07T22:10:01.389Z,13.65
2022-10-07T22:12:30.491Z,14.18
2022-10-07T22:14:59.763Z,13.18
2022-10-07T22:17:28.772Z,11.90
2022-10-07T22:19:58.840Z,12.27
2022-10-07T22:22:28.550Z,13.35
2022-10-07T22:24:57.539Z,11.45
2022-10-07T22:27:28.264Z,11.73
2022-10-07T22:29:58.711Z,13.15
2022-10-07T22:32:28.281Z,12.82
2022-10-07T22:35:14.719Z,12.68
2022-10-07T22:37:45.009Z,12.18
2022-10-07T22:40:14.011Z,12.45
2022-10-07T22:42:48.017Z,13.55
2022-10-07T22:45:19.262Z,12.68
2022-10-07T22:47:51.191Z,13.77
2022-10-07T22:50:20.527Z,14.70
2022-10-07T22:52:50.086Z,12.32
2022-10-07T22:55:21.480Z,16.05
2022-10-07T22:57:53.220Z,16.95
2022-10-07T23:00:22.422Z,20.88
2022-10-07T23:02:54.247Z,21.92
2022-10-07T23:05:23.579Z,21.40
2022-10-07T23:07:52.845Z,16.65
2022-10-07T23:10:23.371Z,17.48
2022-10-07T23:12:53.899Z,16.92
2022-10-07T23:15:23.114Z,15.57
2022-10-07T23:17:52.279Z,19.13
2022-10-07T23:20:25.301Z,16.13
2022-10-07T23:22:54.497Z,15.15
2022-10-07T23:25:26.354Z,16.02
2022-10-07T23:27:56.992Z,15.60
2022-10-07T23:30:26.063Z,15.55
2022-10-07T23:32:56.239Z,15.35
2022-10-07T23:35:25.591Z,14.50
2022-10-07T23:37:56.382Z,15.48
2022-10-07T23:40:25.497Z,14.48
2022-10-07T23:42:56.065Z,16.52
2022-10-07T23:45:25.084Z,14.48
2022-10-07T23:47:54.189Z,15.07
2022-10-07T23:50:23.518Z,16.02
2022-10-07T23:52:52.621Z,16.00
2022-10-07T23:55:21.951Z,16.60
2022-10-07T23:57:51.187Z,14.65
